Time;durP1;ratioP1;P1;durP2;ratioP2;P2;SDS_P1;SDS_P2;PMS_P1;PMS_P2;Temp;Humidity;BMP_temperature;BMP_pressure;BME280_temperature;BME280_humidity;BME280_pressure;Samples;Min_cycle;Max_cycle;Signal;HPM_P1;HPM_P2
2022/01/10 00:03:51;;;;;;;22.48;10.80;;;1.20;99.90;;;;;;20709161;28;20021;-77
2022/01/10 00:13:52;;;;;;;23.27;10.60;;;1.20;99.90;;;;;;20744771;28;20090;-78
2022/01/10 00:23:53;;;;;;;19.13;10.20;;;1.20;99.90;;;;;;20738195;28;20022;-78
2022/01/10 00:33:54;;;;;;;17.52;7.88;;;1.30;99.90;;;;;;20795613;28;20038;-78
2022/01/10 00:43:55;;;;;;;19.77;9.75;;;1.30;99.90;;;;;;20705419;28;20084;-77
2022/01/10 00:53:56;;;;;;;19.58;9.55;;;1.30;99.90;;;;;;20724047;28;20034;-77
2022/01/10 01:03:56;;;;;;;16.83;9.00;;;1.30;99.90;;;;;;20725913;28;20038;-77
2022/01/10 01:14:04;;;;;;;16.02;7.65;;;1.40;99.90;;;;;;20705430;28;20082;-78
2022/01/10 01:24:07;;;;;;;15.85;8.43;;;1.50;99.90;;;;;;20681285;28;20054;-78
2022/01/10 01:34:10;;;;;;;16.05;7.85;;;1.50;99.90;;;;;;20670547;28;20030;-78
2022/01/10 01:44:11;;;;;;;13.68;6.82;;;1.40;99.90;;;;;;20694615;28;20049;-78
2022/01/10 01:54:12;;;;;;;14.10;7.28;;;1.30;99.90;;;;;;20716971;28;20532;-77
2022/01/10 02:04:14;;;;;;;14.48;7.10;;;1.30;99.90;;;;;;20695396;28;20034;-79
2022/01/10 02:14:18;;;;;;;15.65;7.65;;;1.30;99.90;;;;;;20701582;28;20030;-79
2022/01/10 02:24:20;;;;;;;15.23;7.40;;;1.30;99.90;;;;;;20697208;28;20041;-79
2022/01/10 02:34:24;;;;;;;14.98;8.43;;;1.40;99.90;;;;;;20694692;28;20034;-79
2022/01/10 02:44:26;;;;;;;18.63;9.52;;;1.30;99.90;;;;;;20713974;28;20045;-79
2022/01/10 02:54:26;;;;;;;18.73;9.45;;;1.30;99.90;;;;;;20698549;28;20501;-79
2022/01/10 03:04:29;;;;;;;15.75;7.53;;;1.30;99.90;;;;;;20692422;28;20093;-78
2022/01/10 03:14:30;;;;;;;15.20;7.18;;;1.10;99.90;;;;;;20771371;28;20381;-79
2022/01/10 03:24:31;;;;;;;17.10;8.07;;;1.20;99.90;;;;;;20689987;28;20030;-78
2022/01/10 03:34:32;;;;;;;14.77;7.38;;;1.10;99.90;;;;;;20724289;28;20057;-77
2022/01/10 03:44:34;;;;;;;17.15;7.82;;;1.10;99.90;;;;;;20720434;28;20065;-79
2022/01/10 03:54:36;;;;;;;29.45;9.77;;;1.20;99.90;;;;;;20686117;28;20043;-78
2022/01/10 04:04:38;;;;;;;36.17;9.15;;;1.10;99.90;;;;;;20670707;28;20035;-78
2022/01/10 04:14:39;;;;;;;22.75;8.95;;;1.00;99.90;;;;;;20740394;28;20038;-78
2022/01/10 04:24:40;;;;;;;24.15;9.43;;;1.10;99.90;;;;;;20725110;28;20409;-78
2022/01/10 04:34:43;;;;;;;44.58;9.10;;;1.20;99.90;;;;;;20695577;28;20125;-77
2022/01/10 04:44:44;;;;;;;21.88;8.85;;;1.00;99.90;;;;;;20643415;28;20053;-78
2022/01/10 04:54:45;;;;;;;23.27;9.52;;;1.00;99.90;;;;;;20652436;28;20512;-77
2022/01/10 05:04:46;;;;;;;19.27;8.48;;;1.00;99.90;;;;;;20625445;28;20035;-77
2022/01/10 05:14:47;;;;;;;20.65;7.85;;;1.10;99.90;;;;;;20622516;28;20118;-77
2022/01/10 05:24:48;;;;;;;20.20;7.72;;;1.10;99.90;;;;;;20665023;28;20054;-77
2022/01/10 05:34:49;;;;;;;19.67;7.55;;;1.10;99.90;;;;;;20650237;28;20385;-77
2022/01/10 05:44:50;;;;;;;23.67;7.80;;;0.90;99.90;;;;;;20722426;28;20033;-77
2022/01/10 05:54:51;;;;;;;19.05;6.68;;;0.80;99.90;;;;;;20748691;28;20026;-78
2022/01/10 06:04:54;;;;;;;22.20;8.85;;;1.10;99.90;;;;;;20652549;28;20037;-77
2022/01/10 06:15:06;;;;;;;15.10;6.05;;;0.90;99.90;;;;;;20681493;28;20056;-77
2022/01/10 06:25:16;;;;;;;28.75;8.10;;;0.80;99.90;;;;;;20683506;28;20055;-78
2022/01/10 06:35:18;;;;;;;25.98;6.80;;;0.80;99.90;;;;;;20697022;28;20057;-78
2022/01/10 06:45:19;;;;;;;22.02;7.45;;;0.90;99.90;;;;;;20689039;28;20085;-78
2022/01/10 06:55:21;;;;;;;19.60;6.50;;;0.90;99.90;;;;;;20714603;28;20035;-79
2022/01/10 07:05:22;;;;;;;18.25;6.65;;;1.00;99.90;;;;;;20708582;28;20041;-79
2022/01/10 07:15:27;;;;;;;11.00;4.57;;;1.10;99.90;;;;;;20711366;28;20031;-79
2022/01/10 07:25:32;;;;;;;12.30;5.60;;;1.20;99.90;;;;;;20696882;28;20034;-79
2022/01/10 07:35:32;;;;;;;12.38;4.80;;;1.30;99.90;;;;;;20707621;28;20053;-78
2022/01/10 07:45:34;;;;;;;16.00;5.50;;;1.20;99.90;;;;;;20702446;28;20034;-78
2022/01/10 07:55:35;;;;;;;22.42;6.22;;;1.00;99.90;;;;;;20711402;28;20069;-77
2022/01/10 08:05:35;;;;;;;15.90;6.22;;;1.20;99.90;;;;;;20778611;28;20045;-78
2022/01/10 08:15:36;;;;;;;15.82;5.68;;;1.20;99.90;;;;;;20784721;28;20034;-78
2022/01/10 08:25:37;;;;;;;14.63;5.43;;;1.30;99.90;;;;;;20785067;28;20124;-78
2022/01/10 08:35:38;;;;;;;13.68;5.82;;;1.50;99.90;;;;;;20760138;28;20064;-78
2022/01/10 08:45:40;;;;;;;14.00;5.68;;;1.50;99.90;;;;;;20754996;28;20455;-77
2022/01/10 08:55:40;;;;;;;12.55;5.70;;;1.60;99.90;;;;;;20769593;28;20033;-77
2022/01/10 09:05:41;;;;;;;12.60;6.65;;;1.80;99.90;;;;;;20800032;28;20041;-77
2022/01/10 09:15:42;;;;;;;14.60;6.03;;;2.00;99.90;;;;;;20784168;28;20061;-77
2022/01/10 09:25:44;;;;;;;19.88;7.28;;;2.10;99.90;;;;;;20797979;28;20033;-78
2022/01/10 09:35:45;;;;;;;14.20;6.63;;;1.90;99.90;;;;;;20757673;28;20429;-77
2022/01/10 09:45:47;;;;;;;15.18;6.35;;;1.90;99.90;;;;;;20771086;28;20026;-77
2022/01/10 09:55:48;;;;;;;17.25;7.53;;;2.00;99.90;;;;;;20750896;28;20045;-77
2022/01/10 10:05:53;;;;;;;15.25;6.40;;;2.50;99.90;;;;;;20745406;28;20594;-77
2022/01/10 10:15:55;;;;;;;13.82;6.93;;;2.90;99.90;;;;;;20745297;28;20488;-77
2022/01/10 10:25:56;;;;;;;17.50;8.15;;;3.30;99.90;;;;;;20707631;28;20034;-77
2022/01/10 10:35:58;;;;;;;;;;;3.50;99.90;;;;;;20744468;28;20034;-77
2022/01/10 10:46:00;;;;;;;;;;;3.70;99.90;;;;;;20744187;28;19913;-77
2022/01/10 10:56:04;;;;;;;10.88;5.68;;;3.90;99.90;;;;;;20762725;28;20007;-77
2022/01/10 11:06:07;;;;;;;8.23;4.47;;;4.20;99.90;;;;;;20735410;28;20136;-77
2022/01/10 11:16:09;;;;;;;8.23;4.53;;;4.00;99.90;;;;;;20777414;28;20054;-78
2022/01/10 11:26:11;;;;;;;12.73;5.10;;;3.80;99.90;;;;;;20731600;28;20485;-77
2022/01/10 11:36:13;;;;;;;8.85;4.97;;;3.80;99.90;;;;;;20672129;28;20489;-78
2022/01/10 11:46:19;;;;;;;9.38;4.95;;;3.80;99.90;;;;;;20743834;28;20109;-77
2022/01/10 11:56:29;;;;;;;10.60;5.80;;;3.60;99.90;;;;;;20768287;28;20518;-77
2022/01/10 12:06:30;;;;;;;13.02;6.32;;;3.30;99.90;;;;;;20727845;28;20061;-77
2022/01/10 12:16:31;;;;;;;16.00;6.38;;;3.40;99.90;;;;;;20664728;28;20489;-77
2022/01/10 12:26:32;;;;;;;;;;;3.70;99.90;;;;;;20673157;28;20048;-77
2022/01/10 12:36:34;;;;;;;10.80;6.25;;;3.80;99.90;;;;;;20637471;28;19953;-77
2022/01/10 12:46:36;;;;;;;12.02;5.43;;;3.80;99.90;;;;;;20592822;28;20031;-77
2022/01/10 12:56:37;;;;;;;8.05;4.75;;;4.40;99.90;;;;;;20592366;28;20125;-77
2022/01/10 13:06:39;;;;;;;;;;;4.70;99.90;;;;;;20589424;28;20034;-77
2022/01/10 13:16:41;;;;;;;16.07;4.63;;;4.80;99.90;;;;;;20587677;28;19918;-77
2022/01/10 13:26:53;;;;;;;13.57;4.63;;;5.20;99.90;;;;;;20590914;28;20490;-77
2022/01/10 13:36:54;;;;;;;17.58;6.25;;;4.90;99.90;;;;;;20592855;28;20521;-77
2022/01/10 13:47:06;;;;;;;8.30;4.43;;;5.70;99.90;;;;;;20602461;28;20116;-77
2022/01/10 13:57:33;;;;;;;37.92;18.05;;;6.10;99.90;;;;;;20692144;28;20037;-77
2022/01/10 14:07:34;;;;;;;11.40;4.43;;;5.80;99.90;;;;;;20636931;28;20227;-77
2022/01/10 14:17:35;;;;;;;11.70;4.60;;;5.20;99.90;;;;;;20629485;28;20034;-76
2022/01/10 14:27:36;;;;;;;8.50;4.40;;;5.40;99.90;;;;;;20606578;28;20301;-77
2022/01/10 14:37:37;;;;;;;9.93;4.33;;;6.10;99.90;;;;;;20651171;28;20038;-77
2022/01/10 14:47:39;;;;;;;6.80;3.20;;;6.70;99.90;;;;;;20644065;28;20515;-78
2022/01/10 14:57:40;;;;;;;8.68;3.85;;;7.20;99.90;;;;;;20609421;28;20063;-77
2022/01/10 15:07:41;;;;;;;8.67;3.17;;;7.50;99.90;;;;;;20610921;28;20145;-77
2022/01/10 15:17:42;;;;;;;8.40;2.83;;;6.80;99.90;;;;;;20637858;28;20042;-77
2022/01/10 15:27:42;;;;;;;6.03;3.15;;;5.10;99.90;;;;;;20634087;28;20069;-77
2022/01/10 15:37:43;;;;;;;7.40;3.33;;;4.80;99.90;;;;;;20638774;28;20037;-77
2022/01/10 15:47:45;;;;;;;9.52;4.10;;;3.90;99.90;;;;;;20650695;28;20108;-77
2022/01/10 15:57:47;;;;;;;13.35;3.40;;;3.20;99.90;;;;;;20632420;28;21430;-77
2022/01/10 16:07:48;;;;;;;7.95;3.85;;;2.60;99.90;;;;;;20646268;28;22136;-77
2022/01/10 16:17:50;;;;;;;6.60;4.20;;;2.60;99.90;;;;;;20664490;28;20493;-77
2022/01/10 16:27:51;;;;;;;12.90;3.83;;;2.30;99.90;;;;;;20628730;28;20044;-76
2022/01/10 16:37:52;;;;;;;7.97;3.58;;;2.10;99.90;;;;;;20610272;28;20046;-76
2022/01/10 16:47:55;;;;;;;5.95;3.60;;;1.90;99.90;;;;;;20604563;28;20038;-77
2022/01/10 16:57:56;;;;;;;6.90;3.90;;;1.80;99.90;;;;;;20602498;28;20144;-76
2022/01/10 17:07:57;;;;;;;8.63;3.88;;;2.00;99.90;;;;;;20600271;28;20048;-76
2022/01/10 17:17:58;;;;;;;6.57;3.60;;;1.90;99.90;;;;;;20651316;28;20034;-77
2022/01/10 17:28:00;;;;;;;15.85;3.88;;;1.80;99.90;;;;;;20583346;28;20454;-76
2022/01/10 17:38:00;;;;;;;10.88;3.90;;;1.80;99.90;;;;;;20561816;28;20528;-76
2022/01/10 17:48:01;;;;;;;26.88;7.78;;;1.70;99.90;;;;;;20542017;28;20050;-77
2022/01/10 17:58:02;;;;;;;10.93;4.50;;;1.50;99.90;;;;;;20562633;28;20354;-76
2022/01/10 18:08:04;;;;;;;19.80;5.50;;;1.30;99.90;;;;;;20561031;28;20066;-76
2022/01/10 18:18:07;;;;;;;11.82;5.80;;;1.30;99.90;;;;;;20559546;28;20089;-76
2022/01/10 18:28:08;;;;;;;26.23;9.63;;;1.40;99.90;;;;;;20561299;28;20118;-77
2022/01/10 18:38:09;;;;;;;19.77;8.15;;;1.40;99.90;;;;;;20576445;28;20137;-76
2022/01/10 18:48:10;;;;;;;11.55;6.00;;;1.30;99.90;;;;;;20568126;28;20093;-75
2022/01/10 18:58:11;;;;;;;11.25;6.55;;;1.30;99.90;;;;;;20561527;28;20039;-77
2022/01/10 19:08:12;;;;;;;22.15;6.97;;;1.10;99.90;;;;;;20557087;28;20097;-77
2022/01/10 19:18:12;;;;;;;13.20;7.25;;;0.80;99.90;;;;;;20575634;28;20442;-76
2022/01/10 19:28:14;;;;;;;14.43;5.78;;;0.80;99.90;;;;;;20577303;28;20042;-77
2022/01/10 19:38:15;;;;;;;21.98;8.65;;;0.80;99.90;;;;;;20574567;28;20049;-77
2022/01/10 19:48:15;;;;;;;15.70;5.97;;;0.70;99.90;;;;;;20573228;28;20486;-76
2022/01/10 19:58:17;;;;;;;16.48;6.55;;;0.70;99.90;;;;;;20569959;28;20038;-75
2022/01/10 20:08:18;;;;;;;13.52;6.90;;;0.50;99.90;;;;;;20573225;28;20445;-75
2022/01/10 20:18:18;;;;;;;16.25;6.18;;;0.50;99.90;;;;;;20571150;28;20118;-76
2022/01/10 20:28:20;;;;;;;15.80;7.00;;;0.50;99.90;;;;;;20569343;28;20049;-76
2022/01/10 20:38:21;;;;;;;13.30;6.82;;;0.60;99.90;;;;;;20550188;28;20549;-75
2022/01/10 20:48:22;;;;;;;21.42;9.00;;;0.40;99.90;;;;;;20561004;28;20061;-76
2022/01/10 20:58:23;;;;;;;20.73;9.25;;;0.60;99.90;;;;;;20568392;28;20109;-75
2022/01/10 21:08:24;;;;;;;18.25;8.10;;;0.80;99.90;;;;;;20552180;28;20050;-75
2022/01/10 21:18:25;;;;;;;24.55;10.13;;;1.00;99.90;;;;;;20565571;28;20425;-75
2022/01/10 21:28:26;;;;;;;20.08;9.55;;;1.00;99.90;;;;;;20566141;28;20041;-75
2022/01/10 21:38:27;;;;;;;22.42;9.77;;;1.10;99.90;;;;;;20582372;28;20093;-75
2022/01/10 21:48:28;;;;;;;20.75;8.27;;;1.20;99.90;;;;;;20583115;28;20454;-75
2022/01/10 21:58:28;;;;;;;19.70;8.52;;;1.20;99.90;;;;;;20583524;28;20044;-76
2022/01/10 22:08:29;;;;;;;15.23;7.90;;;1.10;99.90;;;;;;20582691;28;20037;-75
2022/01/10 22:18:30;;;;;;;21.48;8.52;;;1.20;99.90;;;;;;20583262;28;20070;-75
2022/01/10 22:28:33;;;;;;;14.27;7.20;;;1.00;99.90;;;;;;20583545;28;20031;-76
2022/01/10 22:38:34;;;;;;;11.43;6.53;;;1.00;99.90;;;;;;20582861;28;20042;-75
2022/01/10 22:48:35;;;;;;;20.48;7.22;;;0.90;99.90;;;;;;20579287;28;20486;-75
2022/01/10 22:58:37;;;;;;;15.70;6.68;;;0.50;99.90;;;;;;20581916;28;20057;-76
2022/01/10 23:08:37;;;;;;;15.25;6.95;;;0.80;99.90;;;;;;20581200;28;20607;-76
2022/01/10 23:18:38;;;;;;;10.75;4.95;;;0.80;99.90;;;;;;20581792;28;20027;-76
2022/01/10 23:28:41;;;;;;;13.25;4.63;;;0.40;99.90;;;;;;20584550;28;20067;-76
2022/01/10 23:38:41;;;;;;;14.20;5.38;;;0.30;99.90;;;;;;20562978;28;20035;-76
2022/01/10 23:48:42;;;;;;;14.38;5.85;;;0.30;99.90;;;;;;20576856;28;20478;-74
2022/01/10 23:58:43;;;;;;;12.05;5.55;;;0.30;99.90;;;;;;20580043;28;20520;-75
